Time;durP1;ratioP1;P1;durP2;ratioP2;P2;SDS_P1;SDS_P2;PMS_P1;PMS_P2;Temp;Humidity;BMP_temperature;BMP_pressure;BME280_temperature;BME280_humidity;BME280_pressure;Samples;Min_cycle;Max_cycle;Signal;HPM_P1;HPM_P2
2023/04/30 00:01:03;;;;;;;21.90;12.75;;;;;;;;;;6250342;28;20402;-78
2023/04/30 00:04:05;;;;;;;20.70;12.70;;;;;;;;;;6245227;28;20128;-78
2023/04/30 00:07:07;;;;;;;19.08;12.27;;;;;;;;;;6228174;28;20049;-77
2023/04/30 00:10:10;;;;;;;18.98;12.32;;;;;;;;;;6232723;28;20050;-77
2023/04/30 00:13:12;;;;;;;18.17;12.13;;;;;;;;;;6230528;28;20047;-78
2023/04/30 00:16:14;;;;;;;18.40;11.57;;;;;;;;;;6229955;28;21016;-77
2023/04/30 00:19:16;;;;;;;22.23;13.25;;;;;;;;;;6232192;28;20076;-78
2023/04/30 00:22:18;;;;;;;23.10;12.77;;;;;;;;;;6230956;28;20041;-77
2023/04/30 00:25:23;;;;;;;22.08;13.07;;;;;;;;;;6234113;28;20139;-78
2023/04/30 00:28:24;;;;;;;22.42;13.40;;;;;;;;;;6230948;28;20045;-77
2023/04/30 00:31:26;;;;;;;22.05;13.15;;;;;;;;;;6247195;28;20052;-78
2023/04/30 00:34:28;;;;;;;24.85;14.05;;;;;;;;;;6200857;28;20045;-76
2023/04/30 00:37:29;;;;;;;25.70;14.30;;;;;;;;;;6231577;28;20045;-78
2023/04/30 00:40:33;;;;;;;24.92;14.52;;;;;;;;;;6247478;28;20139;-78
2023/04/30 00:43:35;;;;;;;23.00;13.48;;;;;;;;;;6227626;28;20041;-77
2023/04/30 00:46:37;;;;;;;21.45;13.15;;;;;;;;;;6239414;28;20037;-76
2023/04/30 00:49:38;;;;;;;22.52;13.40;;;;;;;;;;6233515;28;20060;-78
2023/04/30 00:52:43;;;;;;;22.88;13.10;;;;;;;;;;6232639;28;20063;-77
2023/04/30 00:55:45;;;;;;;22.85;13.60;;;;;;;;;;6247708;28;20041;-77
2023/04/30 00:58:50;;;;;;;23.17;13.25;;;;;;;;;;6244745;28;20045;-77
2023/04/30 01:01:52;;;;;;;22.17;13.25;;;;;;;;;;6226968;28;20045;-78
2023/04/30 01:04:55;;;;;;;19.63;12.13;;;;;;;;;;6249615;28;20960;-77
2023/04/30 01:07:56;;;;;;;21.37;12.90;;;;;;;;;;6230506;28;20442;-78
2023/04/30 01:11:16;;;;;;;25.05;12.82;;;;;;;;;;6211561;28;20049;-78
2023/04/30 01:14:29;;;;;;;21.65;12.50;;;;;;;;;;6236226;28;20063;-77
2023/04/30 01:17:48;;;;;;;22.77;12.63;;;;;;;;;;6230417;28;20052;-77
2023/04/30 01:20:55;;;;;;;23.60;13.20;;;;;;;;;;6231303;28;20049;-77
2023/04/30 01:24:35;;;;;;;22.45;12.82;;;;;;;;;;6246345;28;20068;-78
2023/04/30 01:28:00;;;;;;;22.77;12.50;;;;;;;;;;6142283;28;20043;-78
2023/04/30 01:31:01;;;;;;;22.52;12.90;;;;;;;;;;6227993;28;20462;-77
2023/04/30 01:34:03;;;;;;;23.17;12.15;;;;;;;;;;6229971;28;20125;-78
2023/04/30 01:37:15;;;;;;;24.08;12.98;;;;;;;;;;6247909;28;20168;-77
2023/04/30 01:40:52;;;;;;;22.10;12.90;;;;;;;;;;6226734;28;20045;-77
2023/04/30 01:44:06;;;;;;;23.15;12.70;;;;;;;;;;6243508;28;20041;-77
2023/04/30 01:47:29;;;;;;;21.60;12.85;;;;;;;;;;6245212;28;20045;-77
2023/04/30 01:50:46;;;;;;;26.38;13.55;;;;;;;;;;6209613;28;20042;-78
2023/04/30 01:53:48;;;;;;;19.50;10.75;;;;;;;;;;6227457;28;20499;-78
2023/04/30 01:57:05;;;;;;;19.55;11.93;;;;;;;;;;6230704;28;20041;-78
2023/04/30 02:00:10;;;;;;;19.65;11.30;;;;;;;;;;6232912;28;20038;-77
2023/04/30 02:03:15;;;;;;;19.88;11.57;;;;;;;;;;6250998;28;20037;-77
2023/04/30 02:06:17;;;;;;;24.40;12.95;;;;;;;;;;6235085;28;20041;-78
2023/04/30 02:09:18;;;;;;;26.48;13.20;;;;;;;;;;6238272;28;20123;-78
2023/04/30 02:12:20;;;;;;;29.70;14.02;;;;;;;;;;6233917;28;20036;-77
2023/04/30 02:15:22;;;;;;;24.42;13.35;;;;;;;;;;6233940;28;20037;-77
2023/04/30 02:18:23;;;;;;;28.90;13.68;;;;;;;;;;6229555;28;20041;-77
2023/04/30 02:21:26;;;;;;;26.30;13.70;;;;;;;;;;6230397;28;20106;-76
2023/04/30 02:24:27;;;;;;;25.33;12.90;;;;;;;;;;6232826;28;20041;-77
2023/04/30 02:27:31;;;;;;;26.02;12.85;;;;;;;;;;6236881;28;20045;-78
2023/04/30 02:30:32;;;;;;;26.80;13.25;;;;;;;;;;6237575;28;20055;-77
2023/04/30 02:33:34;;;;;;;25.70;12.88;;;;;;;;;;6233366;28;20503;-76
2023/04/30 02:36:36;;;;;;;24.10;13.02;;;;;;;;;;6225309;28;20523;-77
2023/04/30 02:39:38;;;;;;;23.33;13.25;;;;;;;;;;6238914;28;20045;-77
2023/04/30 02:42:39;;;;;;;23.15;12.90;;;;;;;;;;6218751;28;20049;-78
2023/04/30 02:45:41;;;;;;;31.85;13.52;;;;;;;;;;6230182;28;20061;-78
2023/04/30 02:48:43;;;;;;;31.80;13.52;;;;;;;;;;6254278;28;20503;-78
2023/04/30 02:51:45;;;;;;;34.45;14.55;;;;;;;;;;6237288;28;20045;-77
2023/04/30 02:54:46;;;;;;;35.22;15.57;;;;;;;;;;6238459;28;20045;-77
2023/04/30 02:57:48;;;;;;;34.38;14.85;;;;;;;;;;6240415;28;20403;-78
2023/04/30 03:00:50;;;;;;;41.85;14.05;;;;;;;;;;6241395;28;20674;-77
2023/04/30 03:03:52;;;;;;;49.90;14.93;;;;;;;;;;6246426;28;20037;-78
2023/04/30 03:06:53;;;;;;;40.08;15.32;;;;;;;;;;6232045;28;20034;-76
2023/04/30 03:09:55;;;;;;;45.13;15.55;;;;;;;;;;6246574;28;20103;-77
2023/04/30 03:12:59;;;;;;;33.42;14.65;;;;;;;;;;6250388;28;20531;-78
2023/04/30 03:16:03;;;;;;;43.28;14.18;;;;;;;;;;6247485;28;20552;-77
2023/04/30 03:19:05;;;;;;;65.20;14.80;;;;;;;;;;6229853;28;20119;-78
2023/04/30 03:22:07;;;;;;;30.88;13.10;;;;;;;;;;6230497;28;20395;-77
2023/04/30 03:25:09;;;;;;;41.33;13.02;;;;;;;;;;6223265;28;20119;-78
2023/04/30 03:28:10;;;;;;;38.42;13.85;;;;;;;;;;6233565;28;20045;-77
2023/04/30 03:31:12;;;;;;;36.22;13.43;;;;;;;;;;6247359;28;20545;-77
2023/04/30 03:34:14;;;;;;;36.80;14.10;;;;;;;;;;6234571;28;20049;-77
2023/04/30 03:37:15;;;;;;;34.90;13.70;;;;;;;;;;6213020;28;20044;-78
2023/04/30 03:40:17;;;;;;;31.10;13.35;;;;;;;;;;6230230;28;20045;-78
2023/04/30 03:43:20;;;;;;;59.70;14.75;;;;;;;;;;6233294;28;20041;-77
2023/04/30 03:46:23;;;;;;;58.97;14.68;;;;;;;;;;6233097;28;20060;-78
2023/04/30 03:49:24;;;;;;;52.80;14.40;;;;;;;;;;6231176;28;20044;-77
2023/04/30 03:52:26;;;;;;;74.95;16.25;;;;;;;;;;6214646;28;20082;-78
2023/04/30 03:55:28;;;;;;;28.63;12.93;;;;;;;;;;6233606;28;20048;-77
2023/04/30 03:58:30;;;;;;;30.60;14.05;;;;;;;;;;6248693;28;20465;-77
2023/04/30 04:01:31;;;;;;;32.95;14.13;;;;;;;;;;6213247;28;20048;-78
2023/04/30 04:04:33;;;;;;;52.22;14.18;;;;;;;;;;6215099;28;20557;-77
2023/04/30 04:07:35;;;;;;;40.40;14.00;;;;;;;;;;6247872;28;20041;-78
2023/04/30 04:10:38;;;;;;;66.90;14.50;;;;;;;;;;6230411;28;20037;-77
2023/04/30 04:13:40;;;;;;;63.13;14.95;;;;;;;;;;6232627;28;20033;-77
2023/04/30 04:16:43;;;;;;;37.17;14.90;;;;;;;;;;6225408;28;20048;-78
2023/04/30 04:19:45;;;;;;;50.90;12.95;;;;;;;;;;6229772;28;20047;-78
2023/04/30 04:22:47;;;;;;;36.47;13.02;;;;;;;;;;6245984;28;20167;-77
2023/04/30 04:25:49;;;;;;;28.67;13.20;;;;;;;;;;6245420;28;20124;-79
2023/04/30 04:28:51;;;;;;;50.50;14.13;;;;;;;;;;6256645;28;20060;-77
2023/04/30 04:31:54;;;;;;;32.63;13.38;;;;;;;;;;6247820;28;20084;-77
2023/04/30 04:34:56;;;;;;;28.92;13.40;;;;;;;;;;6230116;28;20057;-78
2023/04/30 04:37:57;;;;;;;96.45;14.85;;;;;;;;;;6231374;28;20478;-77
2023/04/30 04:40:59;;;;;;;57.70;13.57;;;;;;;;;;6234543;28;20122;-77
2023/04/30 04:44:02;;;;;;;64.03;14.27;;;;;;;;;;6243521;28;20132;-77
2023/04/30 04:47:04;;;;;;;74.57;15.50;;;;;;;;;;6230474;28;20092;-77
2023/04/30 04:50:06;;;;;;;67.22;14.02;;;;;;;;;;6227645;28;20048;-77
2023/04/30 04:53:08;;;;;;;44.72;14.25;;;;;;;;;;6227377;28;20056;-78
2023/04/30 04:56:10;;;;;;;52.60;14.13;;;;;;;;;;6225049;28;20045;-78
2023/04/30 04:59:16;;;;;;;38.05;12.32;;;;;;;;;;6211801;28;20400;-77
2023/04/30 05:02:22;;;;;;;65.28;13.68;;;;;;;;;;6228916;28;20049;-77
2023/04/30 05:05:25;;;;;;;35.90;11.82;;;;;;;;;;6226573;28;20041;-78
2023/04/30 05:08:27;;;;;;;40.88;13.65;;;;;;;;;;6230425;28;20518;-77
2023/04/30 05:11:28;;;;;;;29.25;12.98;;;;;;;;;;6231547;28;20458;-78
2023/04/30 05:14:30;;;;;;;36.97;12.25;;;;;;;;;;6230936;28;20518;-77
2023/04/30 05:17:32;;;;;;;33.45;13.25;;;;;;;;;;6224094;28;20034;-78
2023/04/30 05:20:33;;;;;;;30.67;13.30;;;;;;;;;;6226738;28;20049;-76
2023/04/30 05:23:35;;;;;;;45.13;13.57;;;;;;;;;;6246674;28;20575;-78
2023/04/30 05:26:37;;;;;;;54.78;13.45;;;;;;;;;;6233759;28;20199;-78
2023/04/30 05:29:40;;;;;;;31.70;13.10;;;;;;;;;;6230944;28;20617;-78
2023/04/30 05:32:41;;;;;;;27.65;12.32;;;;;;;;;;6257039;28;20048;-78
2023/04/30 05:35:43;;;;;;;27.67;12.00;;;;;;;;;;6239940;28;20642;-77
2023/04/30 05:38:44;;;;;;;20.90;11.10;;;;;;;;;;6229992;28;20050;-78
2023/04/30 05:41:46;;;;;;;31.77;11.85;;;;;;;;;;6240090;28;20039;-78
2023/04/30 05:44:49;;;;;;;24.25;12.10;;;;;;;;;;6239050;28;20051;-77
2023/04/30 05:47:51;;;;;;;25.40;12.15;;;;;;;;;;6231330;28;20041;-78
2023/04/30 05:50:53;;;;;;;23.67;12.15;;;;;;;;;;6238009;28;20071;-78
2023/04/30 05:53:56;;;;;;;25.27;12.65;;;;;;;;;;6254887;28;20175;-78
2023/04/30 05:56:58;;;;;;;;;;;;;;;;;;6244239;28;20042;-77
2023/04/30 05:59:59;;;;;;;23.85;12.60;;;;;;;;;;6239740;28;19928;-77
2023/04/30 06:03:01;;;;;;;23.23;12.40;;;;;;;;;;6244567;28;20104;-78
2023/04/30 06:06:03;;;;;;;24.23;12.43;;;;;;;;;;6221962;28;20057;-78
2023/04/30 06:09:05;;;;;;;25.53;13.50;;;;;;;;;;6235453;28;20045;-77
2023/04/30 06:12:07;;;;;;;25.05;13.75;;;;;;;;;;6236002;28;20510;-78
2023/04/30 06:15:08;;;;;;;25.90;13.40;;;;;;;;;;6240218;28;20048;-77
2023/04/30 06:18:12;;;;;;;24.50;12.93;;;;;;;;;;6236330;28;20049;-78
2023/04/30 06:21:14;;;;;;;18.15;10.40;;;;;;;;;;6234344;28;20164;-76
2023/04/30 06:24:16;;;;;;;19.27;11.55;;;;;;;;;;6233713;28;20041;-77
2023/04/30 06:27:17;;;;;;;21.75;11.63;;;;;;;;;;6234748;28;20143;-77
2023/04/30 06:30:19;;;;;;;20.38;11.50;;;;;;;;;;6235265;28;20168;-77
2023/04/30 06:33:21;;;;;;;20.75;11.27;;;;;;;;;;6237206;28;20064;-78
2023/04/30 06:36:23;;;;;;;22.13;11.85;;;;;;;;;;6234465;28;20061;-78
2023/04/30 06:39:24;;;;;;;21.98;12.32;;;;;;;;;;6235991;28;20518;-77
2023/04/30 06:42:26;;;;;;;23.05;12.32;;;;;;;;;;6233651;28;20041;-77
2023/04/30 06:45:28;;;;;;;20.30;11.68;;;;;;;;;;6232735;28;20518;-77
2023/04/30 06:48:29;;;;;;;24.42;12.32;;;;;;;;;;6234041;28;20431;-79
2023/04/30 06:51:31;;;;;;;20.80;12.35;;;;;;;;;;6249083;28;20049;-78
2023/04/30 06:54:32;;;;;;;21.00;11.98;;;;;;;;;;6235709;28;20063;-78
2023/04/30 06:57:36;;;;;;;20.67;10.70;;;;;;;;;;6238427;28;20195;-77
2023/04/30 07:00:38;;;;;;;14.23;8.95;;;;;;;;;;6235975;28;20163;-78
2023/04/30 07:03:39;;;;;;;16.10;8.15;;;;;;;;;;6228836;28;20045;-78
2023/04/30 07:06:41;;;;;;;14.00;8.23;;;;;;;;;;6237007;28;20099;-79
2023/04/30 07:09:43;;;;;;;11.70;8.18;;;;;;;;;;6230389;28;20041;-79
2023/04/30 07:12:45;;;;;;;13.70;8.13;;;;;;;;;;6237324;28;20411;-79
2023/04/30 07:15:46;;;;;;;12.20;7.65;;;;;;;;;;6243006;28;20059;-78
2023/04/30 07:18:48;;;;;;;11.65;7.22;;;;;;;;;;6237333;28;20048;-79
2023/04/30 07:21:50;;;;;;;14.20;7.57;;;;;;;;;;6236569;28;20132;-78
2023/04/30 07:24:51;;;;;;;9.88;7.15;;;;;;;;;;6238985;28;20868;-78
2023/04/30 07:27:54;;;;;;;11.00;6.30;;;;;;;;;;6228780;28;20172;-78
2023/04/30 07:30:56;;;;;;;8.73;5.68;;;;;;;;;;6236662;28;20061;-78
2023/04/30 07:33:58;;;;;;;8.25;5.07;;;;;;;;;;6235689;28;20049;-77
2023/04/30 07:37:00;;;;;;;6.78;4.80;;;;;;;;;;6231534;28;20041;-78
2023/04/30 07:40:02;;;;;;;8.40;4.88;;;;;;;;;;6252494;28;20046;-78
2023/04/30 07:43:04;;;;;;;7.18;4.55;;;;;;;;;;6251334;28;20033;-78
2023/04/30 07:46:06;;;;;;;7.88;5.05;;;;;;;;;;6233524;28;20084;-78
2023/04/30 07:49:07;;;;;;;9.48;5.45;;;;;;;;;;6234050;28;20044;-78
2023/04/30 07:52:11;;;;;;;8.93;4.60;;;;;;;;;;6236298;28;20484;-78
2023/04/30 07:55:12;;;;;;;8.05;4.53;;;;;;;;;;6234005;28;20187;-78
2023/04/30 07:58:14;;;;;;;6.85;4.32;;;;;;;;;;6231048;28;20453;-78
2023/04/30 08:01:16;;;;;;;6.40;3.92;;;;;;;;;;6213861;28;20056;-78
2023/04/30 08:04:18;;;;;;;9.32;5.07;;;;;;;;;;6234164;28;20052;-79
2023/04/30 08:07:21;;;;;;;9.48;4.55;;;;;;;;;;6230381;28;20068;-79
2023/04/30 08:10:22;;;;;;;;;;;;;;;;;;6232009;28;20584;-78
2023/04/30 08:13:24;;;;;;;6.47;3.88;;;;;;;;;;6231187;28;20294;-79
2023/04/30 08:16:26;;;;;;;6.72;3.88;;;;;;;;;;6234355;28;20053;-79
2023/04/30 08:19:27;;;;;;;4.38;3.47;;;;;;;;;;6233344;28;20050;-77
2023/04/30 08:22:29;;;;;;;6.45;3.67;;;;;;;;;;6232961;28;20041;-77
2023/04/30 08:25:31;;;;;;;4.28;3.38;;;;;;;;;;6257672;28;20076;-77
2023/04/30 08:28:33;;;;;;;6.07;3.55;;;;;;;;;;6252834;28;20042;-78
2023/04/30 08:31:34;;;;;;;6.05;3.65;;;;;;;;;;6239047;28;20049;-78
2023/04/30 08:34:36;;;;;;;4.20;3.13;;;;;;;;;;6234801;28;20033;-78
2023/04/30 08:37:38;;;;;;;5.22;3.60;;;;;;;;;;6210331;28;20071;-78
2023/04/30 08:40:40;;;;;;;3.70;2.92;;;;;;;;;;6235653;28;20064;-76
2023/04/30 08:43:55;;;;;;;4.63;3.13;;;;;;;;;;6246902;28;20132;-77
2023/04/30 08:46:58;;;;;;;4.53;3.35;;;;;;;;;;6243095;28;20455;-76
2023/04/30 08:50:00;;;;;;;5.50;2.97;;;;;;;;;;6233172;28;20071;-77
2023/04/30 08:53:02;;;;;;;5.18;3.30;;;;;;;;;;6232769;28;20042;-78
2023/04/30 08:56:04;;;;;;;4.93;3.10;;;;;;;;;;6230960;28;20116;-78
2023/04/30 08:59:06;;;;;;;4.22;2.95;;;;;;;;;;6243679;28;20052;-78
2023/04/30 09:02:09;;;;;;;4.10;3.30;;;;;;;;;;6228867;28;20764;-77
2023/04/30 09:05:12;;;;;;;3.72;2.63;;;;;;;;;;6241855;28;20502;-77
2023/04/30 09:08:19;;;;;;;5.10;2.80;;;;;;;;;;6224293;28;20049;-76
2023/04/30 09:11:30;;;;;;;3.40;2.40;;;;;;;;;;6243520;28;20041;-78
2023/04/30 09:14:34;;;;;;;5.53;2.60;;;;;;;;;;6230119;28;20499;-77
2023/04/30 09:17:37;;;;;;;3.67;2.40;;;;;;;;;;6208639;28;20056;-76
2023/04/30 09:20:54;;;;;;;3.38;2.33;;;;;;;;;;6228232;28;20132;-77
2023/04/30 09:24:01;;;;;;;3.95;2.08;;;;;;;;;;6227940;28;20049;-77
2023/04/30 09:27:16;;;;;;;2.85;1.60;;;;;;;;;;6227244;28;20041;-78
2023/04/30 09:30:36;;;;;;;2.33;1.70;;;;;;;;;;6226561;28;20045;-78
2023/04/30 09:33:46;;;;;;;2.47;1.73;;;;;;;;;;6225395;28;20042;-78
2023/04/30 09:36:54;;;;;;;2.92;1.95;;;;;;;;;;6230495;28;20052;-78
2023/04/30 09:39:56;;;;;;;2.45;1.58;;;;;;;;;;6233421;28;20146;-78
2023/04/30 09:42:59;;;;;;;2.80;1.65;;;;;;;;;;6237804;28;20049;-79
2023/04/30 09:46:02;;;;;;;1.77;1.60;;;;;;;;;;6230590;28;20057;-79
2023/04/30 09:49:05;;;;;;;1.52;1.13;;;;;;;;;;6232335;28;20041;-78
2023/04/30 09:52:07;;;;;;;2.90;1.50;;;;;;;;;;6229575;28;20046;-79
2023/04/30 09:55:09;;;;;;;1.50;1.40;;;;;;;;;;6215045;28;20046;-79
2023/04/30 09:58:11;;;;;;;1.50;1.38;;;;;;;;;;6232933;28;20049;-80
2023/04/30 10:01:13;;;;;;;2.17;1.25;;;;;;;;;;6250198;28;20041;-78
2023/04/30 10:04:16;;;;;;;3.70;1.40;;;;;;;;;;6228536;28;20056;-79
2023/04/30 10:07:20;;;;;;;1.23;1.13;;;;;;;;;;6230363;28;20044;-80
2023/04/30 10:10:25;;;;;;;1.90;1.00;;;;;;;;;;6247768;28;20042;-77
2023/04/30 10:14:01;;;;;;;2.17;0.90;;;;;;;;;;6229913;28;20041;-77
2023/04/30 10:17:09;;;;;;;1.52;0.93;;;;;;;;;;6229363;28;20048;-77
2023/04/30 10:20:11;;;;;;;0.80;0.75;;;;;;;;;;6232467;28;20052;-77
2023/04/30 10:23:13;;;;;;;1.10;0.90;;;;;;;;;;6238196;28;20425;-77
2023/04/30 10:26:16;;;;;;;1.20;0.83;;;;;;;;;;6250638;28;20188;-77
2023/04/30 10:29:18;;;;;;;1.17;0.85;;;;;;;;;;6233093;28;20976;-75
2023/04/30 10:32:21;;;;;;;0.80;0.80;;;;;;;;;;6234585;28;20053;-75
2023/04/30 10:35:29;;;;;;;1.50;1.00;;;;;;;;;;6247447;28;20045;-75
2023/04/30 10:38:32;;;;;;;0.75;0.75;;;;;;;;;;6230354;28;20111;-75
2023/04/30 10:41:34;;;;;;;1.50;0.80;;;;;;;;;;6235719;28;20713;-75
2023/04/30 10:44:36;;;;;;;1.17;0.80;;;;;;;;;;6231629;28;20058;-75
2023/04/30 10:47:41;;;;;;;2.80;1.30;;;;;;;;;;6245444;28;20041;-77
2023/04/30 10:50:45;;;;;;;1.10;1.00;;;;;;;;;;6232947;28;20060;-76
2023/04/30 10:53:51;;;;;;;1.08;1.00;;;;;;;;;;6228710;28;20188;-77
2023/04/30 10:57:09;;;;;;;1.52;1.15;;;;;;;;;;6221600;28;20053;-77
2023/04/30 11:00:13;;;;;;;0.75;0.75;;;;;;;;;;6244704;28;20076;-77
2023/04/30 11:03:14;;;;;;;2.10;0.82;;;;;;;;;;6235407;28;20102;-76
2023/04/30 11:06:19;;;;;;;2.08;0.88;;;;;;;;;;6228023;28;20049;-77
2023/04/30 11:09:47;;;;;;;1.42;0.80;;;;;;;;;;6229116;28;20053;-77
2023/04/30 11:12:53;;;;;;;0.70;0.70;;;;;;;;;;6218714;28;20063;-77
2023/04/30 11:16:03;;;;;;;1.77;0.88;;;;;;;;;;6227234;28;20227;-77
2023/04/30 11:19:06;;;;;;;0.82;0.70;;;;;;;;;;6232906;28;20056;-77
2023/04/30 11:22:10;;;;;;;0.82;0.80;;;;;;;;;;6238601;28;20073;-75
2023/04/30 11:25:18;;;;;;;0.90;0.90;;;;;;;;;;6229416;28;20110;-77
2023/04/30 11:28:24;;;;;;;0.85;0.80;;;;;;;;;;6229220;28;20422;-77
2023/04/30 11:31:33;;;;;;;0.85;0.85;;;;;;;;;;6245614;28;20045;-78
2023/04/30 11:34:36;;;;;;;1.25;1.13;;;;;;;;;;6231117;28;20050;-77
2023/04/30 11:37:43;;;;;;;1.10;0.90;;;;;;;;;;6228646;28;20049;-78
2023/04/30 11:40:47;;;;;;;2.22;1.05;;;;;;;;;;6249110;28;20038;-77
2023/04/30 11:43:49;;;;;;;2.58;1.00;;;;;;;;;;6229803;28;20280;-76
2023/04/30 11:46:51;;;;;;;1.17;1.02;;;;;;;;;;6220336;28;20160;-77
2023/04/30 11:49:56;;;;;;;1.30;1.20;;;;;;;;;;6220591;28;21348;-77
2023/04/30 11:53:04;;;;;;;2.17;1.10;;;;;;;;;;6224289;28;20045;-76
2023/04/30 11:56:06;;;;;;;1.50;1.13;;;;;;;;;;6227669;28;20136;-76
2023/04/30 11:59:11;;;;;;;1.10;1.00;;;;;;;;;;6233510;28;20157;-77
2023/04/30 12:02:17;;;;;;;1.45;1.20;;;;;;;;;;6222653;28;20049;-77
2023/04/30 12:05:21;;;;;;;1.35;1.25;;;;;;;;;;6247906;28;20037;-76
2023/04/30 12:08:23;;;;;;;1.50;1.40;;;;;;;;;;6240815;28;20144;-76
2023/04/30 12:11:29;;;;;;;1.65;1.30;;;;;;;;;;6228232;28;20046;-77
2023/04/30 12:14:32;;;;;;;1.30;1.20;;;;;;;;;;6229193;28;20148;-77
2023/04/30 12:17:34;;;;;;;1.50;1.10;;;;;;;;;;6226928;28;20140;-76
2023/04/30 12:20:36;;;;;;;1.70;1.10;;;;;;;;;;6228058;28;20060;-77
2023/04/30 12:23:38;;;;;;;1.20;1.10;;;;;;;;;;6233838;28;20149;-76
2023/04/30 12:26:41;;;;;;;1.30;1.20;;;;;;;;;;6238606;28;20047;-77
2023/04/30 12:29:46;;;;;;;;;;;;;;;;;;6244803;28;20128;-76
2023/04/30 12:32:50;;;;;;;1.02;0.93;;;;;;;;;;6228680;28;19941;-76
2023/04/30 12:35:52;;;;;;;1.58;1.15;;;;;;;;;;6229016;28;20126;-77
2023/04/30 12:39:20;;;;;;;1.00;0.90;;;;;;;;;;6232171;28;20054;-77
2023/04/30 12:42:23;;;;;;;0.82;0.70;;;;;;;;;;6244898;28;20048;-75
2023/04/30 12:45:45;;;;;;;0.90;0.90;;;;;;;;;;6231344;28;20041;-76
2023/04/30 12:48:47;;;;;;;1.17;0.90;;;;;;;;;;6229520;28;20057;-75
2023/04/30 12:51:49;;;;;;;1.10;1.00;;;;;;;;;;6232810;28;20037;-75
2023/04/30 12:54:51;;;;;;;10.10;7.73;;;;;;;;;;6245636;28;20104;-76
2023/04/30 12:58:10;;;;;;;1.90;0.82;;;;;;;;;;6243656;28;20448;-76
2023/04/30 13:01:13;;;;;;;4.07;2.45;;;;;;;;;;6230548;28;20735;-75
2023/04/30 13:04:16;;;;;;;2.15;1.45;;;;;;;;;;6230567;28;20040;-75
2023/04/30 13:07:18;;;;;;;1.65;1.02;;;;;;;;;;6231876;28;20455;-76
2023/04/30 13:10:19;;;;;;;1.70;1.23;;;;;;;;;;6232844;28;20041;-75
2023/04/30 13:13:21;;;;;;;0.90;0.90;;;;;;;;;;6229549;28;20044;-75
2023/04/30 13:16:26;;;;;;;2.35;1.60;;;;;;;;;;6231984;28;20428;-75
2023/04/30 13:19:29;;;;;;;2.95;1.27;;;;;;;;;;6228981;28;20800;-76
2023/04/30 13:22:30;;;;;;;0.80;0.80;;;;;;;;;;6212698;28;20132;-76
2023/04/30 13:25:34;;;;;;;1.13;0.90;;;;;;;;;;6246689;28;20037;-76
2023/04/30 13:28:35;;;;;;;0.80;0.80;;;;;;;;;;6228265;28;20044;-77
2023/04/30 13:31:37;;;;;;;1.17;1.08;;;;;;;;;;6243315;28;20043;-76
2023/04/30 13:34:39;;;;;;;1.00;0.90;;;;;;;;;;6247126;28;20088;-76
2023/04/30 13:37:41;;;;;;;3.03;1.77;;;;;;;;;;6226606;28;20041;-76
2023/04/30 13:40:42;;;;;;;1.40;1.10;;;;;;;;;;6232322;28;20484;-77
2023/04/30 13:43:45;;;;;;;1.10;1.00;;;;;;;;;;6229252;28;20135;-77
2023/04/30 13:46:46;;;;;;;1.10;0.70;;;;;;;;;;6241494;28;20434;-77
2023/04/30 13:49:48;;;;;;;1.63;0.80;;;;;;;;;;6229905;28;20046;-76
2023/04/30 13:52:50;;;;;;;2.03;0.70;;;;;;;;;;6231047;28;20041;-76
2023/04/30 13:55:52;;;;;;;0.95;0.52;;;;;;;;;;6234866;28;20514;-76
2023/04/30 13:58:54;;;;;;;1.55;0.68;;;;;;;;;;6225606;28;20041;-76
2023/04/30 14:01:56;;;;;;;0.50;0.50;;;;;;;;;;6233484;28;20140;-77
2023/04/30 14:04:59;;;;;;;2.92;1.50;;;;;;;;;;6230447;28;20105;-77
2023/04/30 14:08:07;;;;;;;1.55;0.60;;;;;;;;;;6230885;28;20126;-76
2023/04/30 14:11:08;;;;;;;1.80;0.50;;;;;;;;;;6230719;28;20053;-76
2023/04/30 14:14:10;;;;;;;11.23;5.50;;;;;;;;;;6245472;28;20050;-77
2023/04/30 14:17:12;;;;;;;1.50;1.10;;;;;;;;;;6249297;28;20495;-76
2023/04/30 14:20:15;;;;;;;2.35;1.30;;;;;;;;;;6234375;28;20948;-77
2023/04/30 14:23:16;;;;;;;0.73;0.70;;;;;;;;;;6231877;28;20169;-76
2023/04/30 14:26:18;;;;;;;2.08;1.10;;;;;;;;;;6233970;28;20116;-77
2023/04/30 14:29:19;;;;;;;4.93;3.50;;;;;;;;;;6232606;28;20060;-76
2023/04/30 14:32:26;;;;;;;3.53;1.55;;;;;;;;;;6235379;28;20463;-76
2023/04/30 14:35:28;;;;;;;1.65;0.80;;;;;;;;;;6233880;28;20116;-76
2023/04/30 14:38:29;;;;;;;0.30;0.30;;;;;;;;;;6235529;28;20064;-76
2023/04/30 14:41:35;;;;;;;0.50;0.22;;;;;;;;;;6229531;28;20040;-76
2023/04/30 14:44:37;;;;;;;0.65;0.47;;;;;;;;;;6234095;28;20554;-76
2023/04/30 14:47:39;;;;;;;1.65;0.55;;;;;;;;;;6236251;28;20041;-76
2023/04/30 14:50:41;;;;;;;0.75;0.50;;;;;;;;;;6232611;28;20053;-76
2023/04/30 14:53:43;;;;;;;0.35;0.35;;;;;;;;;;6234068;28;20514;-77
2023/04/30 14:56:44;;;;;;;0.32;0.32;;;;;;;;;;6229942;28;20041;-76
2023/04/30 14:59:46;;;;;;;0.77;0.40;;;;;;;;;;6233941;28;20049;-76
2023/04/30 15:02:48;;;;;;;0.50;0.43;;;;;;;;;;6231457;28;20029;-77
2023/04/30 15:05:50;;;;;;;0.65;0.40;;;;;;;;;;6231333;28;20048;-77
2023/04/30 15:08:52;;;;;;;0.75;0.40;;;;;;;;;;6234805;28;20747;-76
2023/04/30 15:11:53;;;;;;;0.52;0.30;;;;;;;;;;6230116;28;20038;-75
2023/04/30 15:14:55;;;;;;;0.30;0.30;;;;;;;;;;6228424;28;20042;-77
2023/04/30 15:17:57;;;;;;;0.90;0.50;;;;;;;;;;6232559;28;20159;-77
2023/04/30 15:20:59;;;;;;;0.67;0.40;;;;;;;;;;6231541;28;20041;-76
2023/04/30 15:24:01;;;;;;;0.50;0.37;;;;;;;;;;6232548;28;20467;-76
2023/04/30 15:27:03;;;;;;;0.82;0.60;;;;;;;;;;6231903;28;20128;-76
2023/04/30 15:30:06;;;;;;;0.77;0.50;;;;;;;;;;6231936;28;20041;-76
2023/04/30 15:33:07;;;;;;;0.50;0.40;;;;;;;;;;6229512;28;20052;-76
2023/04/30 15:36:09;;;;;;;0.40;0.40;;;;;;;;;;6226602;28;20041;-76
2023/04/30 15:39:11;;;;;;;0.45;0.43;;;;;;;;;;6230954;28;20431;-76
2023/04/30 15:42:13;;;;;;;1.65;0.50;;;;;;;;;;6227560;28;20510;-76
2023/04/30 15:45:15;;;;;;;1.63;0.40;;;;;;;;;;6226501;28;20042;-77
2023/04/30 15:48:16;;;;;;;2.60;0.50;;;;;;;;;;6242718;28;20049;-77
2023/04/30 15:51:18;;;;;;;1.55;0.68;;;;;;;;;;6228061;28;20052;-76
2023/04/30 15:54:20;;;;;;;1.67;0.60;;;;;;;;;;6233528;28;20526;-76
2023/04/30 15:57:21;;;;;;;2.00;0.50;;;;;;;;;;6229777;28;20290;-78
2023/04/30 16:00:23;;;;;;;3.08;0.47;;;;;;;;;;6231300;28;20041;-76
2023/04/30 16:03:25;;;;;;;2.35;0.60;;;;;;;;;;6234281;28;20042;-77
2023/04/30 16:06:28;;;;;;;1.00;0.50;;;;;;;;;;6229571;28;20044;-77
2023/04/30 16:09:30;;;;;;;;;;;;;;;;;;6251696;28;20069;-77
2023/04/30 16:12:33;;;;;;;2.05;0.60;;;;;;;;;;6236331;28;19925;-78
2023/04/30 16:15:34;;;;;;;3.33;1.00;;;;;;;;;;6226988;28;20415;-76
2023/04/30 16:18:36;;;;;;;1.60;0.90;;;;;;;;;;6250982;28;20045;-78
2023/04/30 16:21:38;;;;;;;1.52;0.80;;;;;;;;;;6235624;28;20136;-77
2023/04/30 16:24:40;;;;;;;3.20;1.07;;;;;;;;;;6232428;28;20045;-77
2023/04/30 16:27:44;;;;;;;2.17;0.85;;;;;;;;;;6233728;28;20037;-77
2023/04/30 16:30:45;;;;;;;2.03;0.70;;;;;;;;;;6233122;28;20037;-77
2023/04/30 16:33:47;;;;;;;0.93;0.70;;;;;;;;;;6233147;28;20052;-77
2023/04/30 16:36:49;;;;;;;1.70;0.80;;;;;;;;;;6234900;28;20049;-77
2023/04/30 16:39:51;;;;;;;2.42;1.15;;;;;;;;;;6228950;28;20163;-77
2023/04/30 16:42:52;;;;;;;1.83;0.80;;;;;;;;;;6229475;28;20064;-76
2023/04/30 16:45:54;;;;;;;2.03;0.80;;;;;;;;;;6235828;28;20049;-77
2023/04/30 16:48:55;;;;;;;1.98;1.00;;;;;;;;;;6232683;28;20049;-77
2023/04/30 16:51:57;;;;;;;1.33;0.80;;;;;;;;;;6222689;28;20037;-77
2023/04/30 16:54:59;;;;;;;2.22;1.30;;;;;;;;;;6229914;28;20654;-77
2023/04/30 16:58:00;;;;;;;2.15;1.00;;;;;;;;;;6230008;28;20071;-76
2023/04/30 17:01:02;;;;;;;3.22;1.65;;;;;;;;;;6227291;28;20033;-77
2023/04/30 17:04:04;;;;;;;1.70;1.45;;;;;;;;;;6226660;28;20046;-76
2023/04/30 17:07:06;;;;;;;2.75;1.13;;;;;;;;;;6226906;28;20427;-77
2023/04/30 17:10:08;;;;;;;1.58;0.90;;;;;;;;;;6229006;28;20041;-76
2023/04/30 17:13:12;;;;;;;3.20;0.80;;;;;;;;;;6229504;28;20051;-77
2023/04/30 17:16:13;;;;;;;1.20;0.88;;;;;;;;;;6228503;28;20042;-77
2023/04/30 17:19:16;;;;;;;2.70;1.05;;;;;;;;;;6232205;28;20179;-76
2023/04/30 17:22:18;;;;;;;;;;;;;;;;;;6229776;28;20057;-76
2023/04/30 17:25:20;;;;;;;1.35;0.90;;;;;;;;;;6244481;28;20387;-76
2023/04/30 17:28:22;;;;;;;3.00;1.10;;;;;;;;;;6226470;28;20057;-76
2023/04/30 17:31:25;;;;;;;1.52;1.00;;;;;;;;;;6225203;28;20448;-76
2023/04/30 17:34:26;;;;;;;2.78;1.20;;;;;;;;;;6245878;28;20124;-77
2023/04/30 17:37:28;;;;;;;3.75;1.20;;;;;;;;;;6246300;28;20134;-77
2023/04/30 17:40:31;;;;;;;3.23;1.00;;;;;;;;;;6246637;28;20045;-76
2023/04/30 17:43:33;;;;;;;;;;;;;;;;;;6230323;28;20047;-77
2023/04/30 17:46:34;;;;;;;2.78;1.17;;;;;;;;;;6234678;28;19927;-76
2023/04/30 17:49:36;;;;;;;3.20;1.75;;;;;;;;;;6231160;28;20034;-76
2023/04/30 17:52:38;;;;;;;2.30;1.00;;;;;;;;;;6230714;28;20048;-77
2023/04/30 17:55:40;;;;;;;3.08;1.27;;;;;;;;;;6234578;28;20045;-77
2023/04/30 17:58:41;;;;;;;3.50;1.43;;;;;;;;;;6245086;28;20037;-77
2023/04/30 18:01:43;;;;;;;2.70;1.30;;;;;;;;;;6235699;28;20432;-76
2023/04/30 18:04:45;;;;;;;2.92;1.60;;;;;;;;;;6232692;28;20053;-76
2023/04/30 18:07:47;;;;;;;2.03;1.48;;;;;;;;;;6227788;28;20045;-76